Time;durP1;ratioP1;P1;durP2;ratioP2;P2;SDS_P1;SDS_P2;PMS_P1;PMS_P2;Temp;Humidity;BMP_temperature;BMP_pressure;BME280_temperature;BME280_humidity;BME280_pressure;Samples;Min_cycle;Max_cycle;Signal;HPM_P1;HPM_P2
2021/08/16 00:02:07;;;;;;;;;3.00;3.00;;;;;22.06;52.06;101151.22;5069165;28;45443;-85
2021/08/16 00:04:33;;;;;;;;;7.00;2.00;;;;;22.13;51.58;101162.69;5064564;28;45330;-89
2021/08/16 00:06:59;;;;;;;;;7.00;4.00;;;;;22.12;51.69;101158.25;5060822;28;45784;-90
2021/08/16 00:09:24;;;;;;;;;5.00;3.00;;;;;22.04;51.95;101147.72;5062836;28;45363;-91
2021/08/16 00:11:50;;;;;;;;;5.00;3.33;;;;;22.07;51.79;101161.03;5063449;28;45331;-88
2021/08/16 00:14:15;;;;;;;;;5.67;5.00;;;;;22.08;51.32;101160.09;5062466;28;45556;-89
2021/08/16 00:16:41;;;;;;;;;3.33;3.33;;;;;22.05;51.17;101168.22;5061644;28;45198;-87
2021/08/16 00:19:07;;;;;;;;;3.33;3.00;;;;;21.97;51.18;101151.47;5061466;28;45314;-91
2021/08/16 00:21:32;;;;;;;;;8.00;4.00;;;;;21.95;51.27;101147.94;5061817;28;45260;-92
2021/08/16 00:23:58;;;;;;;;;2.67;2.67;;;;;21.99;50.85;101163.00;5063099;28;45665;-88
2021/08/16 00:26:23;;;;;;;;;3.67;2.00;;;;;21.98;50.59;101155.88;5064393;28;45389;-89
2021/08/16 00:28:49;;;;;;;;;2.33;2.00;;;;;21.95;50.33;101161.34;5068501;28;45272;-89
2021/08/16 00:31:14;;;;;;;;;4.67;2.00;;;;;21.92;50.22;101154.25;5064256;28;45398;-88
2021/08/16 00:33:39;;;;;;;;;2.00;2.00;;;;;21.92;49.74;101153.34;5063757;28;45720;-92
2021/08/16 00:36:05;;;;;;;;;1.00;1.00;;;;;21.88;50.12;101157.03;5063545;28;45304;-87
2021/08/16 00:38:30;;;;;;;;;2.50;1.50;;;;;21.88;50.28;101160.59;5061925;28;45474;-86
2021/08/16 00:40:56;;;;;;;;;5.00;1.00;;;;;21.85;50.28;101156.19;5061390;28;45344;-90
2021/08/16 00:43:21;;;;;;;;;2.00;1.67;;;;;21.83;50.19;101154.41;5060512;28;46089;-90
2021/08/16 00:45:47;;;;;;;;;2.67;1.67;;;;;21.79;50.05;101153.63;5059775;28;45354;-88
2021/08/16 00:48:13;;;;;;;;;2.00;2.00;;;;;21.79;50.22;101150.94;5060420;28;45326;-91
2021/08/16 00:50:38;;;;;;;;;2.67;1.00;;;;;21.75;50.13;101158.16;5059977;28;45197;-90
2021/08/16 00:53:04;;;;;;;;;3.00;1.67;;;;;21.73;50.47;101153.75;5060052;28;45388;-90
2021/08/16 00:55:30;;;;;;;;;3.00;1.00;;;;;21.69;50.14;101149.38;5059925;28;45465;-89
2021/08/16 00:57:58;;;;;;;;;7.00;2.00;;;;;21.69;50.20;101147.59;5060500;28;45252;-88
2021/08/16 01:00:23;;;;;;;;;2.00;2.00;;;;;21.69;50.19;101144.03;5059155;28;45459;-85
2021/08/16 01:02:49;;;;;;;;;2.67;2.00;;;;;21.66;50.13;101141.44;5061000;28;45422;-88
2021/08/16 01:05:15;;;;;;;;;2.33;2.00;;;;;21.64;50.58;101141.47;5062414;28;45385;-89
2021/08/16 01:07:41;;;;;;;;;3.00;2.00;;;;;21.51;50.23;101120.34;5063279;28;45197;-92
2021/08/16 01:10:08;;;;;;;;;3.00;2.00;;;;;21.59;50.29;101128.22;5066048;28;45456;-85
2021/08/16 01:12:35;;;;;;;;;2.00;2.00;;;;;21.60;50.47;101140.66;5081113;28;46169;-89
2021/08/16 01:15:03;;;;;;;;;4.00;2.33;;;;;21.59;50.35;101146.06;5079362;28;44666;-90
2021/08/16 01:17:30;;;;;;;;;1.67;1.67;;;;;21.60;50.52;101153.16;5071111;28;45184;-85
2021/08/16 01:19:55;;;;;;;;;2.00;2.00;;;;;21.48;50.25;101136.47;5066624;28;45590;-90
2021/08/16 01:22:21;;;;;;;;;1.00;1.00;;;;;21.55;50.53;101144.38;5061209;28;46455;-89
2021/08/16 01:24:46;;;;;;;;;2.00;1.00;;;;;21.52;50.48;101142.63;5060949;28;45299;-87
2021/08/16 01:27:13;;;;;;;;;4.33;1.00;;;;;21.52;50.58;101142.63;5064596;28;45553;-90
2021/08/16 01:29:40;;;;;;;;;3.33;3.00;;;;;21.49;50.32;101134.69;5070630;28;45421;-85
2021/08/16 01:32:06;;;;;;;;;2.67;2.67;;;;;21.50;50.53;101144.47;5070847;28;45332;-86
2021/08/16 01:34:32;;;;;;;;;5.67;3.67;;;;;21.50;50.97;101148.03;5071113;28;44660;-86
2021/08/16 01:37:00;;;;;;;;;2.00;2.00;;;;;21.50;50.64;101150.69;5071547;28;44905;-85
2021/08/16 01:39:27;;;;;;;;;3.33;1.00;;;;;21.44;50.76;101131.22;5070144;28;45306;-85
2021/08/16 01:41:53;;;;;;;;;3.33;1.00;;;;;21.49;50.69;101145.38;5071198;28;45335;-88
2021/08/16 01:44:22;;;;;;;;;1.00;1.00;;;;;21.50;50.59;101149.81;5072582;28;45240;-86
2021/08/16 01:46:48;;;;;;;;;4.00;2.00;;;;;21.48;50.34;101152.53;5074666;28;45311;-87
2021/08/16 01:49:14;;;;;;;;;4.00;2.33;;;;;21.44;50.84;101141.91;5055212;28;45559;-85
2021/08/16 01:51:40;;;;;;;;;6.00;1.33;;;;;21.47;50.54;101153.41;5071677;28;45390;-86
2021/08/16 01:54:08;;;;;;;;;4.00;2.00;;;;;21.39;50.72;101142.00;5071442;28;45392;-86
2021/08/16 01:56:33;;;;;;;;;4.67;2.33;;;;;21.43;50.62;101146.38;5076019;28;44743;-88
2021/08/16 01:58:59;;;;;;;;;6.00;2.33;;;;;21.43;50.64;101143.69;5084648;27;44682;-86
2021/08/16 02:01:25;;;;;;;;;4.33;2.67;;;;;21.39;50.67;101142.91;5084263;28;45657;-88
2021/08/16 02:03:51;;;;;;;;;5.67;2.00;;;;;21.40;50.72;101150.03;5084563;28;44874;-86
2021/08/16 02:06:16;;;;;;;;;3.33;1.33;;;;;21.38;50.65;101149.13;5087708;27;44733;-88
2021/08/16 02:08:42;;;;;;;;;3.00;2.00;;;;;21.43;50.42;101150.88;5088319;27;45203;-89
2021/08/16 02:11:10;;;;;;;;;2.00;0.33;;;;;21.36;50.48;101142.94;5088206;27;45242;-87
2021/08/16 02:13:35;;;;;;;;;3.67;1.33;;;;;21.35;50.41;101143.00;5087810;27;44885;-91
2021/08/16 02:16:01;;;;;;;;;1.00;1.00;;;;;21.36;50.39;101147.44;5086839;28;45299;-86
2021/08/16 02:18:26;;;;;;;;;2.67;2.00;;;;;21.35;50.59;101149.22;5087898;27;44776;-87
2021/08/16 02:20:52;;;;;;;;;2.00;2.00;;;;;21.33;50.76;101145.69;5080427;28;45235;-88
2021/08/16 02:23:17;;;;;;;;;4.00;2.00;;;;;21.35;50.74;101143.00;5082583;28;44732;-89
2021/08/16 02:25:43;;;;;;;;;2.67;1.67;;;;;21.29;50.89;101136.00;5076424;28;45482;-90
2021/08/16 02:28:08;;;;;;;;;3.00;1.00;;;;;21.32;50.87;101143.06;5067596;28;45421;-86
2021/08/16 02:30:33;;;;;;;;;4.33;2.00;;;;;21.25;50.74;101139.63;5066890;28;48397;-93
2021/08/16 02:32:59;;;;;;;;;4.67;1.67;;;;;21.21;50.80;101133.47;5066922;28;45292;-86
2021/08/16 02:35:24;;;;;;;;;2.00;2.00;;;;;21.31;50.89;101141.28;5065522;28;45227;-91
2021/08/16 02:37:50;;;;;;;;;2.67;2.00;;;;;21.22;50.64;101126.31;5065246;28;45386;-90
2021/08/16 02:40:15;;;;;;;;;3.33;2.00;;;;;21.17;50.72;101118.44;5063976;28;45308;-90
2021/08/16 02:42:41;;;;;;;;;1.33;1.33;;;;;21.31;50.69;101136.84;5064024;28;45371;-89
2021/08/16 02:45:07;;;;;;;;;2.33;2.33;;;;;21.30;50.81;101124.38;5063819;28;45219;-89
2021/08/16 02:47:33;;;;;;;;;3.00;1.00;;;;;21.35;51.04;101135.84;5064105;28;45262;-88
2021/08/16 02:49:58;;;;;;;;;2.00;1.00;;;;;21.33;51.02;101132.34;5045379;28;48142;-90
2021/08/16 02:52:23;;;;;;;;;1.00;1.00;;;;;21.36;50.99;101140.28;5061973;28;45917;-88
2021/08/16 02:54:49;;;;;;;;;6.00;2.00;;;;;21.35;51.07;101141.19;5062934;28;45316;-87
2021/08/16 02:57:14;;;;;;;;;4.33;2.00;;;;;21.39;51.37;101142.91;5063020;28;45283;-91
2021/08/16 02:59:40;;;;;;;;;1.00;1.00;;;;;21.35;51.26;101141.19;5062273;28;45454;-90
2021/08/16 03:02:07;;;;;;;;;5.67;3.00;;;;;21.31;51.04;101142.19;5062298;28;45364;-90
2021/08/16 03:04:32;;;;;;;;;4.33;2.33;;;;;21.24;51.38;101136.06;5062506;28;45409;-88
2021/08/16 03:06:58;;;;;;;;;3.67;2.00;;;;;21.27;51.37;101152.06;5063699;28;45314;-91
2021/08/16 03:09:26;;;;;;;;;4.00;2.00;;;;;21.25;51.53;101136.97;5062687;28;45575;-89
2021/08/16 03:11:52;;;;;;;;;3.33;2.00;;;;;21.25;51.82;101145.00;5061856;28;45250;-90
2021/08/16 03:14:17;;;;;;;;;5.33;2.67;;;;;21.20;51.95;101141.50;5063118;28;45370;-90
2021/08/16 03:16:43;;;;;;;;;2.67;2.00;;;;;21.28;52.11;101152.94;5063862;28;45552;-93
2021/08/16 03:19:08;;;;;;;;;8.67;3.00;;;;;21.28;52.14;101147.56;5063182;28;45364;-87
2021/08/16 03:21:34;;;;;;;;;4.67;3.00;;;;;21.27;52.05;101151.19;5063383;28;45416;-92
2021/08/16 03:23:59;;;;;;;;;3.00;2.00;;;;;21.25;52.05;101150.34;5066213;28;45333;-86
2021/08/16 03:26:25;;;;;;;;;3.00;3.00;;;;;21.14;52.59;101143.41;5077970;28;45321;-85
2021/08/16 03:28:50;;;;;;;;;4.00;4.00;;;;;21.10;52.46;101136.38;5069487;28;45419;-91
2021/08/16 03:31:15;;;;;;;;;3.33;3.00;;;;;21.12;52.73;101141.69;5061335;28;45397;-90
2021/08/16 03:33:41;;;;;;;;;5.33;2.00;;;;;21.11;52.68;101138.13;5062978;28;45658;-91
2021/08/16 03:36:06;;;;;;;;;1.33;1.00;;;;;21.13;52.75;101141.63;5084827;27;44812;-88
2021/08/16 03:38:32;;;;;;;;;4.67;2.67;;;;;21.03;52.98;101130.25;5077276;28;46131;-86
2021/08/16 03:40:57;;;;;;;;;2.00;2.00;;;;;21.04;52.68;101132.03;5077365;28;44740;-86
2021/08/16 03:43:23;;;;;;;;;3.67;1.00;;;;;21.08;53.26;101143.53;5077812;28;44986;-86
2021/08/16 03:45:48;;;;;;;;;3.67;3.00;;;;;21.11;53.02;101142.59;5077201;28;45255;-86
2021/08/16 03:48:14;;;;;;;;;7.33;3.00;;;;;21.07;53.18;101141.75;5070930;28;46076;-94
2021/08/16 03:50:39;;;;;;;;;3.00;3.00;;;;;21.03;52.99;101140.06;5061790;28;45153;-90
2021/08/16 03:53:05;;;;;;;;;2.67;2.00;;;;;21.10;53.32;101148.84;5060504;28;45402;-88
2021/08/16 03:55:31;;;;;;;;;3.00;2.00;;;;;21.04;52.99;101145.41;5062580;28;45256;-89
2021/08/16 03:57:57;;;;;;;;;7.67;4.00;;;;;20.97;52.96;101142.84;5068085;28;45327;-85
2021/08/16 04:00:22;;;;;;;;;3.67;3.67;;;;;20.93;53.33;101150.03;5070852;28;45323;-92
2021/08/16 04:02:48;;;;;;;;;2.00;2.00;;;;;20.91;53.28;101151.84;5085041;28;44776;-90
2021/08/16 04:05:13;;;;;;;;;3.33;3.00;;;;;20.82;53.29;101139.56;5079590;28;44668;-91
2021/08/16 04:07:45;;;;;;;;;5.67;3.00;;;;;20.83;53.60;101144.84;5065906;28;45962;-91
2021/08/16 04:10:13;;;;;;;;;4.00;4.00;;;;;20.81;53.39;101144.00;5064702;28;45370;-93
2021/08/16 04:12:38;;;;;;;;;2.33;2.33;;;;;20.81;53.32;101143.16;5066374;28;45475;-93
2021/08/16 04:15:08;;;;;;;;;2.00;2.00;;;;;20.71;53.77;101137.06;5062733;28;45385;-91
2021/08/16 04:17:33;;;;;;;;;2.00;2.00;;;;;20.77;53.29;101144.97;5062095;28;46223;-92
2021/08/16 04:19:58;;;;;;;;;4.33;1.67;;;;;20.73;53.45;101137.94;5060388;28;45338;-91
2021/08/16 04:22:24;;;;;;;;;5.00;2.00;;;;;20.73;53.32;101148.63;5072035;28;45340;-91
2021/08/16 04:24:49;;;;;;;;;2.67;2.00;;;;;20.75;53.59;101152.13;5088358;27;44752;-89
2021/08/16 04:27:15;;;;;;;;;4.33;3.00;;;;;20.76;53.09;101153.03;5067896;28;45428;-93
2021/08/16 04:29:40;;;;;;;;;4.00;2.33;;;;;20.74;53.26;101150.38;5061703;28;45364;-90
2021/08/16 04:32:06;;;;;;;;;3.33;1.00;;;;;20.73;53.22;101158.44;5061706;28;45663;-89
2021/08/16 04:34:31;;;;;;;;;3.00;3.00;;;;;20.67;53.35;101151.41;5061427;28;45181;-87
2021/08/16 04:36:57;;;;;;;;;3.00;3.00;;;;;20.62;53.25;101148.84;5061688;28;45307;-87
2021/08/16 04:39:22;;;;;;;;;4.67;2.00;;;;;20.64;53.62;101154.13;5060945;28;45243;-85
2021/08/16 04:41:50;;;;;;;;;3.67;2.00;;;;;20.67;53.44;101165.63;5061007;28;45237;-92
2021/08/16 04:44:16;;;;;;;;;2.33;1.00;;;;;20.61;53.40;101155.06;5060804;28;45524;-87
2021/08/16 04:46:42;;;;;;;;;4.67;2.00;;;;;20.52;53.17;101139.22;5061184;28;46596;-90
2021/08/16 04:49:07;;;;;;;;;2.00;1.00;;;;;20.54;53.20;101140.94;5061779;28;45349;-92
2021/08/16 04:51:33;;;;;;;;;3.00;1.33;;;;;20.64;53.34;101159.47;5060154;28;45539;-92
2021/08/16 04:53:58;;;;;;;;;1.00;1.00;;;;;20.59;53.25;101160.44;5061618;28;45327;-89
2021/08/16 04:56:24;;;;;;;;;1.00;1.00;;;;;20.58;53.23;101156.00;5061452;28;45349;-91
2021/08/16 04:58:49;;;;;;;;;1.67;1.00;;;;;20.54;53.31;101145.41;5044316;28;45366;-91
2021/08/16 05:01:15;;;;;;;;;0.00;0.00;;;;;20.55;53.07;101158.75;5061653;28;45256;-89
2021/08/16 05:03:40;;;;;;;;;1.00;1.00;;;;;20.53;53.19;101165.00;5059097;28;45208;-88
2021/08/16 05:06:07;;;;;;;;;2.00;1.00;;;;;20.51;53.20;101169.50;5058225;28;46074;-78
2021/08/16 05:08:35;;;;;;;;;3.67;1.00;;;;;20.43;53.33;101151.81;5057031;28;45446;-78
2021/08/16 05:11:00;;;;;;;;;2.00;1.00;;;;;20.45;53.38;101173.16;5057086;28;45494;-78
2021/08/16 05:13:26;;;;;;;;;0.67;0.67;;;;;20.43;53.40;101169.63;5056279;28;45342;-78
2021/08/16 05:15:51;;;;;;;;;1.00;1.00;;;;;20.38;53.28;101167.03;5056649;28;46228;-78
2021/08/16 05:18:17;;;;;;;;;2.00;1.00;;;;;20.34;53.50;101162.66;5056858;28;45408;-78
2021/08/16 05:20:42;;;;;;;;;1.00;1.00;;;;;20.35;53.61;101175.09;5056488;28;45354;-78
2021/08/16 05:23:08;;;;;;;;;1.00;1.00;;;;;20.35;53.54;101180.41;5057084;28;45481;-77
2021/08/16 05:25:33;;;;;;;;;1.67;1.00;;;;;20.35;53.36;101177.75;5057043;28;47132;-77
2021/08/16 05:27:59;;;;;;;;;1.67;1.00;;;;;20.31;53.58;101170.69;5057669;28;45239;-77
2021/08/16 05:30:24;;;;;;;;;1.00;1.00;;;;;20.31;53.53;101178.72;5057300;28;45315;-78
2021/08/16 05:32:49;;;;;;;;;2.00;2.00;;;;;20.29;53.63;101183.19;5056034;28;45630;-78
2021/08/16 05:35:15;;;;;;;;;1.00;1.00;;;;;20.22;53.75;101175.28;5056375;28;46047;-78
2021/08/16 05:37:41;;;;;;;;;2.00;2.00;;;;;20.28;53.69;101187.66;5056153;28;46024;-78
2021/08/16 05:40:08;;;;;;;;;2.33;1.00;;;;;20.28;54.25;101203.69;5056507;28;45362;-78
2021/08/16 05:42:34;;;;;;;;;3.00;1.67;;;;;20.28;54.21;101205.47;5056695;28;45357;-78
2021/08/16 05:45:00;;;;;;;;;1.00;1.00;;;;;20.27;53.72;101203.69;5056257;28;45597;-78
2021/08/16 05:47:26;;;;;;;;;1.00;1.00;;;;;20.27;53.91;101209.03;5056580;28;45398;-79
2021/08/16 05:49:52;;;;;;;;;2.67;2.00;;;;;20.25;53.91;101209.94;5056294;28;45340;-79
2021/08/16 05:52:17;;;;;;;;;1.00;1.00;;;;;20.22;54.01;101196.63;5056357;28;45300;-79
2021/08/16 05:54:43;;;;;;;;;2.33;1.00;;;;;20.24;53.85;101205.50;5056356;28;45342;-79
2021/08/16 05:57:08;;;;;;;;;3.00;1.33;;;;;20.23;54.12;101205.53;5056181;28;45380;-78
2021/08/16 05:59:33;;;;;;;;;1.00;1.00;;;;;20.22;54.06;101215.31;5056457;28;45694;-79
2021/08/16 06:01:59;;;;;;;;;2.00;2.00;;;;;20.22;54.09;101212.66;5056604;28;45318;-79
2021/08/16 06:04:24;;;;;;;;;1.00;1.00;;;;;20.24;54.34;101207.31;5056170;28;47200;-78
2021/08/16 06:06:49;;;;;;;;;0.00;0.00;;;;;20.24;54.48;101210.84;5056202;28;45630;-80
2021/08/16 06:09:15;;;;;;;;;2.67;1.00;;;;;20.28;54.09;101216.16;5056184;28;45322;-78
2021/08/16 06:11:40;;;;;;;;;2.00;1.00;;;;;20.27;54.22;101198.34;5056532;28;45359;-79
2021/08/16 06:14:05;;;;;;;;;1.00;1.00;;;;;20.27;55.02;101209.91;5055855;28;46311;-78
2021/08/16 06:16:31;;;;;;;;;0.33;0.33;;;;;20.27;55.11;101206.34;5055950;28;45330;-79
2021/08/16 06:18:56;;;;;;;;;1.00;1.00;;;;;20.27;55.26;101217.94;5056000;28;45273;-77
2021/08/16 06:21:22;;;;;;;;;2.33;1.00;;;;;20.26;54.55;101213.50;5055029;28;45442;-78
2021/08/16 06:23:47;;;;;;;;;1.67;1.67;;;;;20.22;54.81;101218.00;5055474;28;45203;-78
2021/08/16 06:26:13;;;;;;;;;1.67;1.00;;;;;20.23;54.93;101222.44;5055756;28;45295;-78
2021/08/16 06:28:38;;;;;;;;;1.00;1.00;;;;;20.22;54.89;101212.66;5055867;28;45311;-78
2021/08/16 06:31:07;;;;;;;;;0.67;0.67;;;;;20.21;55.02;101216.25;5057665;28;45498;-83
2021/08/16 06:33:40;;;;;;;;;1.33;1.33;;;;;20.20;54.80;101214.47;5058895;28;45448;-86
2021/08/16 06:36:06;;;;;;;;;2.00;1.00;;;;;20.19;54.79;101218.06;5057244;28;45390;-83
2021/08/16 06:38:31;;;;;;;;;2.33;1.00;;;;;20.17;55.04;101218.97;5059493;28;45394;-85
2021/08/16 06:41:01;;;;;;;;;1.00;1.00;;;;;20.22;54.92;101223.34;5064803;28;45437;-83
2021/08/16 06:43:27;;;;;;;;;2.33;1.00;;;;;20.23;54.98;101225.09;5065916;28;46193;-90
2021/08/16 06:45:53;;;;;;;;;1.33;1.33;;;;;20.25;55.17;101233.97;5061281;28;45407;-81
2021/08/16 06:48:19;;;;;;;;;1.00;1.00;;;;;20.25;55.32;101233.97;5063191;28;45396;-92
2021/08/16 06:50:45;;;;;;;;;2.00;1.00;;;;;20.22;55.19;101244.69;5064357;28;45405;-83
2021/08/16 06:53:13;;;;;;;;;0.00;0.00;;;;;20.22;55.20;101234.00;5062893;28;46220;-89
2021/08/16 06:55:39;;;;;;;;;2.00;1.00;;;;;20.26;55.21;101240.22;5067503;28;45405;-89
2021/08/16 06:58:04;;;;;;;;;0.67;0.67;;;;;20.29;55.24;101232.13;5067478;28;45292;-88
2021/08/16 07:00:30;;;;;;;;;1.33;1.33;;;;;20.32;55.25;101225.88;5066989;28;45363;-88
2021/08/16 07:03:01;;;;;;;;;0.00;0.00;;;;;20.36;55.25;101238.25;5062074;28;45493;-87
2021/08/16 07:05:27;;;;;;;;;1.33;1.00;;;;;20.40;55.18;101242.66;5063935;28;45437;-82
2021/08/16 07:07:53;;;;;;;;;2.00;1.67;;;;;20.41;55.05;101239.06;5061446;28;45398;-81
2021/08/16 07:10:19;;;;;;;;;0.67;0.00;;;;;20.41;55.21;101240.88;5060442;28;45415;-82
2021/08/16 07:12:45;;;;;;;;;3.67;0.33;;;;;20.39;55.35;101246.22;5061075;28;45959;-85
2021/08/16 07:15:11;;;;;;;;;2.00;0.00;;;;;20.39;55.60;101251.56;5061875;28;45307;-83
2021/08/16 07:17:36;;;;;;;;;4.00;0.67;;;;;20.41;55.68;101247.06;5064775;28;45249;-80
2021/08/16 07:20:03;;;;;;;;;0.33;0.33;;;;;20.46;55.29;101258.56;5065718;28;45627;-80
2021/08/16 07:22:28;;;;;;;;;2.00;0.00;;;;;20.50;55.62;101245.16;5064316;28;45234;-81
2021/08/16 07:24:54;;;;;;;;;1.00;1.00;;;;;20.46;55.41;101261.25;5062847;28;45553;-82
2021/08/16 07:27:19;;;;;;;;;2.00;1.00;;;;;20.48;55.46;101267.44;5059251;28;45513;-85
2021/08/16 07:29:44;;;;;;;;;0.00;0.00;;;;;20.49;55.47;101257.66;5060135;28;45702;-82
2021/08/16 07:32:10;;;;;;;;;1.00;1.00;;;;;20.51;55.62;101257.63;5059508;28;46316;-83
2021/08/16 07:34:37;;;;;;;;;0.33;0.00;;;;;20.53;56.01;101254.03;5059632;28;45425;-84
2021/08/16 07:37:04;;;;;;;;;0.00;0.00;;;;;20.54;55.82;101250.44;5059466;28;45386;-86
2021/08/16 07:39:30;;;;;;;;;3.00;0.67;;;;;20.59;55.84;101253.03;5059436;28;45499;-85
2021/08/16 07:41:55;;;;;;;;;0.33;0.33;;;;;20.57;55.57;101255.75;5060340;28;45708;-84
2021/08/16 07:44:21;;;;;;;;;0.00;0.00;;;;;20.60;55.73;101266.34;5064445;28;45317;-82
2021/08/16 07:46:46;;;;;;;;;0.00;0.00;;;;;20.56;55.77;101269.97;5063161;28;45761;-87
2021/08/16 07:49:12;;;;;;;;;0.00;0.00;;;;;20.54;56.14;101273.59;5063399;28;45458;-84
2021/08/16 07:51:37;;;;;;;;;2.00;0.00;;;;;20.54;56.04;101268.28;5062055;28;46463;-82
2021/08/16 07:54:02;;;;;;;;;1.00;1.00;;;;;20.55;56.38;101272.69;5060793;28;45395;-83
2021/08/16 07:56:28;;;;;;;;;0.00;0.00;;;;;20.56;56.12;101266.47;5059850;28;45464;-81
2021/08/16 07:58:53;;;;;;;;;0.67;0.00;;;;;20.55;56.29;101265.56;5062037;28;45840;-82
2021/08/16 08:01:19;;;;;;;;;1.00;1.00;;;;;20.59;56.50;101269.06;5061441;28;45523;-86
2021/08/16 08:03:44;;;;;;;;;6.00;3.67;;;;;20.63;56.78;101270.78;5063101;28;45405;-81
2021/08/16 08:06:10;;;;;;;;;1.33;1.00;;;;;20.69;56.71;101265.31;5061499;28;45770;-83
2021/08/16 08:08:35;;;;;;;;;3.00;1.00;;;;;20.76;56.74;101278.59;5059030;28;45440;-82
2021/08/16 08:11:01;;;;;;;;;0.33;0.33;;;;;20.80;56.36;101267.81;5058438;28;46917;-83
2021/08/16 08:13:27;;;;;;;;;0.33;0.00;;;;;20.78;56.16;101266.09;5059034;28;45837;-83
2021/08/16 08:15:52;;;;;;;;;4.00;2.00;;;;;20.87;56.10;101271.28;5059315;28;45394;-84
2021/08/16 08:18:17;;;;;;;;;0.00;0.00;;;;;20.88;56.12;101275.69;5060176;28;45400;-85
2021/08/16 08:20:43;;;;;;;;;0.00;0.00;;;;;20.88;56.37;101273.03;5058637;28;46427;-84
2021/08/16 08:23:08;;;;;;;;;0.33;0.33;;;;;20.93;56.32;101272.97;5060412;28;45378;-82
2021/08/16 08:25:35;;;;;;;;;0.67;0.67;;;;;20.98;56.31;101280.94;5063023;28;45338;-82
2021/08/16 08:28:01;;;;;;;;;1.00;1.00;;;;;20.99;56.23;101280.00;5064035;28;45576;-82
2021/08/16 08:30:27;;;;;;;;;1.00;1.00;;;;;20.94;56.38;101272.91;5063583;28;46656;-81
2021/08/16 08:32:54;;;;;;;;;2.00;0.00;;;;;20.93;56.09;101275.63;5064697;28;45272;-81
2021/08/16 08:35:21;;;;;;;;;0.00;0.00;;;;;20.98;56.16;101291.63;5062954;28;45460;-83
2021/08/16 08:37:48;;;;;;;;;1.00;1.00;;;;;20.98;56.19;101291.63;5062723;28;45481;-83
2021/08/16 08:40:14;;;;;;;;;0.00;0.00;;;;;21.00;56.23;101296.03;5062758;28;46507;-83
2021/08/16 08:42:39;;;;;;;;;1.00;1.00;;;;;20.98;56.09;101289.84;5060435;28;45409;-85
2021/08/16 08:45:07;;;;;;;;;1.00;1.00;;;;;21.00;56.30;101287.13;5059113;28;45298;-83
2021/08/16 08:47:34;;;;;;;;;0.00;0.00;;;;;21.04;56.18;101292.41;5058972;28;45232;-83
2021/08/16 08:50:01;;;;;;;;;1.00;1.00;;;;;21.06;56.34;101295.03;5058093;28;45998;-82
2021/08/16 08:52:26;;;;;;;;;1.33;1.33;;;;;21.08;56.12;101292.34;5058442;28;45477;-84
2021/08/16 08:54:55;;;;;;;;;1.00;1.00;;;;;21.11;56.16;101293.16;5058590;28;45363;-84
2021/08/16 08:57:21;;;;;;;;;0.00;0.00;;;;;21.13;55.84;101301.16;5058802;28;45208;-83
2021/08/16 08:59:46;;;;;;;;;1.67;1.00;;;;;21.13;56.20;101307.38;5059873;28;45401;-82
2021/08/16 09:02:14;;;;;;;;;0.00;0.00;;;;;21.14;55.98;101306.47;5059425;28;45216;-83
2021/08/16 09:04:54;;;;;;;;;3.00;1.00;;;;;21.16;56.01;101303.78;5059031;28;45469;-82
2021/08/16 09:07:37;;;;;;;;;1.33;1.00;;;;;21.17;56.45;101306.41;5060348;28;45392;-81
2021/08/16 09:10:05;;;;;;;;;0.00;0.00;;;;;21.23;56.13;101307.22;5060602;28;45437;-82
2021/08/16 09:12:34;;;;;;;;;2.00;0.67;;;;;21.21;56.03;101309.03;5060842;28;45434;-82
2021/08/16 09:15:00;;;;;;;;;0.33;0.33;;;;;21.25;55.97;101318.75;5057669;28;45398;-84
2021/08/16 09:17:31;;;;;;;;;0.00;0.00;;;;;21.22;56.31;101314.34;5058162;28;45425;-82
2021/08/16 09:19:57;;;;;;;;;0.00;0.00;;;;;21.24;56.24;101308.97;5058203;28;45298;-84
2021/08/16 09:22:34;;;;;;;;;0.00;0.00;;;;;21.24;56.17;101325.91;5058955;28;45920;-82
2021/08/16 09:25:06;;;;;;;;;0.00;0.00;;;;;21.24;56.11;101322.34;5059417;28;45398;-87
2021/08/16 09:27:33;;;;;;;;;2.00;0.33;;;;;21.24;56.33;101325.00;5058723;28;45299;-82
2021/08/16 09:29:59;;;;;;;;;1.00;1.00;;;;;21.24;56.54;101328.56;5058660;28;45308;-84
2021/08/16 09:32:33;;;;;;;;;4.00;1.00;;;;;21.26;56.54;101333.88;5059431;28;45362;-85
2021/08/16 09:35:11;;;;;;;;;2.00;1.00;;;;;21.29;56.42;101329.38;5059078;28;45223;-84
2021/08/16 09:37:37;;;;;;;;;1.00;1.00;;;;;21.33;56.23;101335.56;5058690;28;45319;-80
2021/08/16 09:40:10;;;;;;;;;1.00;1.00;;;;;21.38;56.84;101332.81;5057306;28;46215;-82
2021/08/16 09:42:46;;;;;;;;;0.33;0.33;;;;;21.43;56.36;101335.41;5057546;28;45466;-83
2021/08/16 09:45:14;;;;;;;;;2.33;0.33;;;;;21.47;56.56;101340.63;5058069;28;46209;-82
2021/08/16 09:47:44;;;;;;;;;1.00;1.00;;;;;21.48;56.57;101329.03;5059187;28;45334;-83
2021/08/16 09:50:11;;;;;;;;;1.00;1.00;;;;;21.56;56.54;101331.56;5059280;28;46768;-82
2021/08/16 09:52:36;;;;;;;;;1.00;1.00;;;;;21.67;56.65;101338.50;5064508;28;46008;-82
2021/08/16 09:55:02;;;;;;;;;1.33;1.00;;;;;21.73;56.26;101343.72;5062039;28;45389;-81
2021/08/16 09:57:31;;;;;;;;;3.00;1.00;;;;;21.81;56.29;101341.78;5058917;28;45327;-85
2021/08/16 10:00:02;;;;;;;;;1.00;1.00;;;;;21.90;56.05;101334.50;5057937;28;45326;-85
2021/08/16 10:02:27;;;;;;;;;2.67;1.00;;;;;22.24;56.18;101343.59;5058303;28;45346;-82
2021/08/16 10:04:57;;;;;;;;;2.00;1.00;;;;;22.49;55.65;101335.91;5056765;28;45421;-85
2021/08/16 10:07:26;;;;;;;;;1.00;1.00;;;;;22.64;55.25;101333.78;5058705;28;45490;-88
2021/08/16 10:09:56;;;;;;;;;0.00;0.00;;;;;22.65;54.54;101336.41;5058539;28;46946;-84
2021/08/16 10:12:22;;;;;;;;;2.00;2.00;;;;;22.63;54.65;101345.44;5058431;28;45336;-82
2021/08/16 10:14:49;;;;;;;;;3.00;1.67;;;;;22.52;55.27;101376.03;5057974;28;45208;-82
2021/08/16 10:17:16;;;;;;;;;1.67;1.67;;;;;22.40;55.97;101368.28;5057699;28;45668;-83
2021/08/16 10:19:43;;;;;;;;;2.33;0.67;;;;;22.23;56.45;101368.63;5058779;28;46382;-83
2021/08/16 10:22:09;;;;;;;;;3.00;2.00;;;;;22.08;57.81;101373.41;5061132;28;45415;-85
2021/08/16 10:24:35;;;;;;;;;2.00;2.00;;;;;21.95;57.80;101380.81;5061714;28;45398;-83
2021/08/16 10:27:09;;;;;;;;;2.33;1.00;;;;;21.84;57.91;101373.88;5061290;28;45212;-83
2021/08/16 10:29:39;;;;;;;;;1.00;1.00;;;;;21.73;58.30;101381.19;5060873;28;45460;-85
2021/08/16 10:32:16;;;;;;;;;1.00;1.00;;;;;21.63;58.60;101381.38;5060343;28;45628;-85
2021/08/16 10:34:42;;;;;;;;;2.00;2.00;;;;;21.62;59.32;101390.28;5061106;28;45313;-85
2021/08/16 10:37:10;;;;;;;;;1.33;1.33;;;;;21.61;59.18;101388.53;5061430;28;45270;-84
2021/08/16 10:39:45;;;;;;;;;1.67;1.00;;;;;21.63;59.64;101397.44;5061934;28;46344;-81
2021/08/16 10:42:31;;;;;;;;;2.33;1.00;;;;;21.66;59.33;101392.94;5066593;28;45296;-83
2021/08/16 10:44:59;;;;;;;;;1.67;1.00;;;;;21.79;59.38;101399.78;5065811;28;45255;-83
2021/08/16 10:47:32;;;;;;;;;1.00;0.00;;;;;21.91;59.54;101398.72;5063955;28;45558;-83
2021/08/16 10:50:19;;;;;;;;;1.33;1.33;;;;;22.13;58.73;101400.06;5059733;28;45307;-84
2021/08/16 10:52:45;;;;;;;;;0.67;0.67;;;;;22.29;59.00;101384.56;5059166;28;45491;-82
2021/08/16 10:55:15;;;;;;;;;2.00;2.00;;;;;22.54;58.93;101395.63;5060637;28;45453;-83
2021/08/16 10:57:42;;;;;;;;;3.00;2.00;;;;;22.66;58.40;101398.97;5060882;28;45253;-83
2021/08/16 11:00:10;;;;;;;;;2.00;2.00;;;;;22.75;57.50;101392.50;5060152;28;46263;-84
2021/08/16 11:02:40;;;;;;;;;2.00;2.00;;;;;22.84;57.40;101399.47;5060522;28;45451;-85
2021/08/16 11:05:07;;;;;;;;;1.00;1.00;;;;;22.83;57.06;101397.69;5060165;28;45391;-87
2021/08/16 11:07:32;;;;;;;;;2.00;2.00;;;;;22.78;55.75;101413.91;5060466;28;45311;-85
2021/08/16 11:10:01;;;;;;;;;5.33;3.00;;;;;22.65;55.67;101400.72;5061252;28;45553;-84
2021/08/16 11:12:44;;;;;;;;;3.00;3.00;;;;;22.58;54.99;101417.88;5061495;28;45382;-84
2021/08/16 11:15:14;;;;;;;;;3.33;2.67;;;;;22.60;54.64;101436.59;5061812;28;45227;-84
2021/08/16 11:17:40;;;;;;;;;4.33;4.00;;;;;22.55;53.77;101434.00;5061301;28;45413;-85
2021/08/16 11:20:15;;;;;;;;;6.00;4.33;;;;;22.45;54.11;101427.97;5061694;28;46270;-83
2021/08/16 11:22:45;;;;;;;;;3.67;3.33;;;;;22.42;53.74;101426.22;5060563;28;45430;-82